createdAt,value
2022-08-03T00:00:51.981Z,19.63
2022-08-03T00:01:53.792Z,19.61
2022-08-03T00:02:55.612Z,19.58
2022-08-03T00:03:57.401Z,19.57
2022-08-03T00:04:59.551Z,19.54
2022-08-03T00:06:03.852Z,19.52
2022-08-03T00:07:02.509Z,19.5
2022-08-03T00:08:04.142Z,19.48
2022-08-03T00:09:05.827Z,19.47
2022-08-03T00:10:07.580Z,19.47
2022-08-03T00:11:09.501Z,19.47
2022-08-03T00:12:11.145Z,19.48
2022-08-03T00:13:12.788Z,19.49
2022-08-03T00:14:14.545Z,19.5
2022-08-03T00:15:17.043Z,19.5
2022-08-03T00:16:18.113Z,19.51
2022-08-03T00:17:19.743Z,19.52
2022-08-03T00:18:21.591Z,19.54
2022-08-03T00:19:23.224Z,19.55
2022-08-03T00:20:25.021Z,19.55
2022-08-03T00:21:26.801Z,19.56
2022-08-03T00:22:28.584Z,19.56
2022-08-03T00:23:50.960Z,19.55
2022-08-03T00:24:32.000Z,19.55
2022-08-03T00:25:33.551Z,19.54
2022-08-03T00:26:35.436Z,19.54
2022-08-03T00:27:37.162Z,19.53
2022-08-03T00:28:38.803Z,19.51
2022-08-03T00:30:00.095Z,19.5
2022-08-03T00:30:42.353Z,19.49
2022-08-03T00:31:52.777Z,19.49
2022-08-03T00:32:45.811Z,19.48
2022-08-03T00:33:58.026Z,19.47
2022-08-03T00:34:58.829Z,19.46
2022-08-03T00:35:51.283Z,19.45
2022-08-03T00:36:52.794Z,19.43
2022-08-03T00:37:54.629Z,19.42
2022-08-03T00:38:56.157Z,19.41
2022-08-03T00:39:58.070Z,19.4
2022-08-03T00:40:59.816Z,19.39
2022-08-03T00:42:01.531Z,19.39
2022-08-03T00:43:03.289Z,19.38
2022-08-03T00:44:04.828Z,19.38
2022-08-03T00:45:06.585Z,19.37
2022-08-03T00:46:08.354Z,19.38
2022-08-03T00:47:10.135Z,19.39
2022-08-03T00:48:29.820Z,19.4
2022-08-03T00:49:13.588Z,19.41
2022-08-03T00:50:15.300Z,19.43
2022-08-03T00:51:17.058Z,19.44
2022-08-03T00:52:19.044Z,19.45
2022-08-03T00:53:20.575Z,19.46
2022-08-03T00:54:22.234Z,19.45
2022-08-03T00:55:23.922Z,19.46
2022-08-03T00:56:25.773Z,19.46
2022-08-03T00:57:27.435Z,19.44
2022-08-03T00:58:29.217Z,19.43
2022-08-03T00:59:30.969Z,19.42
2022-08-03T01:00:32.673Z,19.41
2022-08-03T01:01:34.497Z,19.4
2022-08-03T01:02:36.181Z,19.39
2022-08-03T01:03:37.951Z,19.37
2022-08-03T01:04:39.821Z,19.35
2022-08-03T01:05:41.320Z,19.32
2022-08-03T01:06:42.918Z,19.3
2022-08-03T01:07:44.785Z,19.27
2022-08-03T01:08:46.470Z,19.24
2022-08-03T01:09:48.304Z,19.22
2022-08-03T01:10:49.830Z,19.19
2022-08-03T01:12:00.743Z,19.16
2022-08-03T01:12:53.414Z,19.13
2022-08-03T01:14:03.680Z,19.1
2022-08-03T01:14:56.992Z,19.07
2022-08-03T01:15:58.693Z,19.05
2022-08-03T01:17:00.471Z,19.03
2022-08-03T01:18:02.320Z,19.01
2022-08-03T01:19:03.886Z,18.98
2022-08-03T01:20:05.708Z,18.96
2022-08-03T01:21:07.357Z,18.93
2022-08-03T01:22:09.044Z,18.9
2022-08-03T01:23:10.828Z,18.88
2022-08-03T01:24:12.499Z,18.85
2022-08-03T01:25:14.267Z,18.84
2022-08-03T01:26:15.963Z,18.8
2022-08-03T01:27:17.832Z,18.78
2022-08-03T01:28:19.813Z,18.76
2022-08-03T01:29:21.301Z,18.73
2022-08-03T01:30:23.012Z,18.71
2022-08-03T01:31:24.758Z,18.69
2022-08-03T01:32:53.268Z,18.65
2022-08-03T01:33:28.139Z,18.63
2022-08-03T01:34:30.111Z,18.59
2022-08-03T01:35:31.689Z,18.57
2022-08-03T01:36:33.436Z,18.54
2022-08-03T01:37:35.159Z,18.52
2022-08-03T01:38:36.931Z,18.5
2022-08-03T01:39:38.364Z,18.47
2022-08-03T01:40:40.125Z,18.46
2022-08-03T01:41:41.997Z,18.44
2022-08-03T01:42:43.897Z,18.42
2022-08-03T01:43:58.968Z,18.42
2022-08-03T01:44:47.240Z,18.42
2022-08-03T01:45:49.064Z,18.43
2022-08-03T01:46:50.863Z,18.43
2022-08-03T01:47:52.481Z,18.44
2022-08-03T01:48:54.292Z,18.45
2022-08-03T01:49:55.949Z,18.46
2022-08-03T01:50:57.727Z,18.48
2022-08-03T01:52:05.041Z,18.48
2022-08-03T01:53:01.378Z,18.49
2022-08-03T01:54:02.889Z,18.5
2022-08-03T01:55:04.577Z,18.51
2022-08-03T01:56:06.378Z,18.51
2022-08-03T01:57:08.129Z,18.53
2022-08-03T01:58:10.125Z,18.54
2022-08-03T01:59:11.509Z,18.54
2022-08-03T02:00:13.807Z,18.55
2022-08-03T02:01:15.448Z,18.56
2022-08-03T02:02:33.016Z,18.56
2022-08-03T02:03:19.203Z,18.57
2022-08-03T02:04:20.599Z,18.57
2022-08-03T02:05:22.470Z,18.58
2022-08-03T02:07:01.289Z,18.58
2022-08-03T02:07:26.048Z,18.59
2022-08-03T02:08:27.697Z,18.59
2022-08-03T02:09:29.970Z,18.59
2022-08-03T02:10:34.649Z,18.59
2022-08-03T02:11:32.958Z,18.59
2022-08-03T02:12:34.545Z,18.59
2022-08-03T02:13:36.297Z,18.59
2022-08-03T02:14:37.780Z,18.59
2022-08-03T02:15:39.364Z,18.58
2022-08-03T02:16:41.336Z,18.58
2022-08-03T02:17:42.949Z,18.57
2022-08-03T02:18:44.813Z,18.56
2022-08-03T02:19:46.317Z,18.56
2022-08-03T02:20:47.938Z,18.56
2022-08-03T02:21:57.216Z,18.55
2022-08-03T02:22:51.485Z,18.55
2022-08-03T02:23:53.231Z,18.54
2022-08-03T02:24:54.827Z,18.53
2022-08-03T02:25:56.760Z,18.52
2022-08-03T02:26:58.654Z,18.5
2022-08-03T02:28:00.814Z,18.49
2022-08-03T02:29:02.408Z,18.47
2022-08-03T02:30:03.917Z,18.47
2022-08-03T02:31:06.094Z,18.45
2022-08-03T02:32:07.270Z,18.44
2022-08-03T02:33:09.614Z,18.43
2022-08-03T02:34:11.413Z,18.41
2022-08-03T02:35:12.354Z,18.4
2022-08-03T02:36:14.509Z,18.39
2022-08-03T02:37:16.204Z,18.38
2022-08-03T02:38:18.459Z,18.37
2022-08-03T02:39:19.913Z,18.35
2022-08-03T02:40:21.714Z,18.34
2022-08-03T02:41:23.602Z,18.33
2022-08-03T02:42:24.966Z,18.32
2022-08-03T02:43:26.366Z,18.31
2022-08-03T02:44:28.594Z,18.3
2022-08-03T02:45:29.820Z,18.29
2022-08-03T02:46:31.891Z,18.29
2022-08-03T02:47:54.082Z,18.29
2022-08-03T02:48:35.130Z,18.3
2022-08-03T02:49:50.388Z,18.29
2022-08-03T02:50:38.943Z,18.29
2022-08-03T02:51:41.215Z,18.29
2022-08-03T02:52:42.847Z,18.28
2022-08-03T02:53:43.976Z,18.27
2022-08-03T02:54:45.895Z,18.27
2022-08-03T02:55:47.706Z,18.26
2022-08-03T02:56:49.448Z,18.25
2022-08-03T02:57:51.278Z,18.24
2022-08-03T02:58:52.993Z,18.24
2022-08-03T02:59:54.669Z,18.23
2022-08-03T03:00:56.180Z,18.22
2022-08-03T03:01:58.084Z,18.2
2022-08-03T03:03:00.410Z,18.18
2022-08-03T03:04:01.836Z,18.17
2022-08-03T03:05:53.089Z,18.15
2022-08-03T03:06:05.626Z,18.14
2022-08-03T03:07:06.526Z,18.13
2022-08-03T03:08:17.710Z,18.12
2022-08-03T03:09:09.957Z,18.11
2022-08-03T03:10:11.895Z,18.1
2022-08-03T03:11:13.616Z,18.09
2022-08-03T03:12:15.283Z,18.09
2022-08-03T03:13:17.024Z,18.07
2022-08-03T03:14:18.093Z,18.06
2022-08-03T03:15:20.427Z,18.06
2022-08-03T03:16:21.874Z,18.05
2022-08-03T03:17:23.697Z,18.04
2022-08-03T03:18:25.318Z,18.03
2022-08-03T03:19:27.083Z,18.02
2022-08-03T03:20:29.315Z,18.02
2022-08-03T03:21:30.927Z,18.01
2022-08-03T03:22:32.102Z,18
2022-08-03T03:23:34.209Z,18
2022-08-03T03:24:35.958Z,17.99
2022-08-03T03:25:37.310Z,17.98
2022-08-03T03:26:42.367Z,17.98
2022-08-03T03:27:40.851Z,17.97
2022-08-03T03:28:42.705Z,17.97
2022-08-03T03:29:44.438Z,17.96
2022-08-03T03:30:52.596Z,17.97
2022-08-03T03:31:47.926Z,17.96
2022-08-03T03:32:52.183Z,17.95
2022-08-03T03:33:51.257Z,17.95
2022-08-03T03:34:53.091Z,17.95
2022-08-03T03:35:54.868Z,17.95
2022-08-03T03:36:56.447Z,17.94
2022-08-03T03:37:58.341Z,17.94
2022-08-03T03:38:59.959Z,17.93
2022-08-03T03:40:01.694Z,17.93
2022-08-03T03:41:04.377Z,17.92
2022-08-03T03:42:05.083Z,17.91
2022-08-03T03:43:06.911Z,17.9
2022-08-03T03:44:08.517Z,17.89
2022-08-03T03:45:10.665Z,17.87
2022-08-03T03:46:12.011Z,17.86
2022-08-03T03:47:13.868Z,17.85
2022-08-03T03:48:15.373Z,17.84
2022-08-03T03:49:17.304Z,17.82
2022-08-03T03:50:19.088Z,17.81
2022-08-03T03:51:20.901Z,17.81
2022-08-03T03:52:22.376Z,17.79
2022-08-03T03:53:24.162Z,17.78
2022-08-03T03:54:26.165Z,17.77
2022-08-03T03:55:27.645Z,17.76
2022-08-03T03:56:29.340Z,17.75
2022-08-03T03:57:31.297Z,17.74
2022-08-03T03:58:32.994Z,17.73
2022-08-03T03:59:34.562Z,17.72
2022-08-03T04:00:36.259Z,17.71
2022-08-03T04:01:38.255Z,17.7
2022-08-03T04:02:39.794Z,17.69
2022-08-03T04:03:41.648Z,17.67
2022-08-03T04:04:43.468Z,17.66
2022-08-03T04:05:46.022Z,17.64
2022-08-03T04:06:46.840Z,17.62
2022-08-03T04:07:48.634Z,17.61
2022-08-03T04:08:50.649Z,17.6
2022-08-03T04:09:52.379Z,17.59
2022-08-03T04:10:54.008Z,17.57
2022-08-03T04:11:55.587Z,17.56
2022-08-03T04:12:57.001Z,17.55
2022-08-03T04:14:01.996Z,17.53
2022-08-03T04:15:01.152Z,17.52
2022-08-03T04:16:05.204Z,17.5
2022-08-03T04:17:04.587Z,17.49
2022-08-03T04:18:06.321Z,17.48
2022-08-03T04:19:07.551Z,17.46
2022-08-03T04:20:09.410Z,17.46
2022-08-03T04:21:11.051Z,17.44
2022-08-03T04:22:13.177Z,17.43
2022-08-03T04:23:15.588Z,17.42
2022-08-03T04:24:16.337Z,17.4
2022-08-03T04:25:18.058Z,17.39
2022-08-03T04:26:19.515Z,17.38
2022-08-03T04:27:21.562Z,17.36
2022-08-03T04:28:30.995Z,17.35
2022-08-03T04:29:25.100Z,17.33
2022-08-03T04:30:26.434Z,17.33
2022-08-03T04:31:28.408Z,17.31
2022-08-03T04:32:30.361Z,17.3
2022-08-03T04:33:32.454Z,17.29
2022-08-03T04:34:33.766Z,17.28
2022-08-03T04:36:01.677Z,17.26
2022-08-03T04:36:37.039Z,17.25
2022-08-03T04:37:38.812Z,17.24
2022-08-03T04:38:40.959Z,17.24
2022-08-03T04:39:42.291Z,17.24
2022-08-03T04:40:43.996Z,17.24
2022-08-03T04:42:07.284Z,17.23
2022-08-03T04:42:47.179Z,17.23
2022-08-03T04:43:49.198Z,17.25
2022-08-03T04:44:51.351Z,17.24
2022-08-03T04:45:52.804Z,17.24
2022-08-03T04:46:54.709Z,17.25
2022-08-03T04:47:55.952Z,17.25
2022-08-03T04:48:58.215Z,17.26
2022-08-03T04:49:59.906Z,17.28
2022-08-03T04:51:01.729Z,17.27
2022-08-03T04:52:03.498Z,17.28
2022-08-03T04:53:05.858Z,17.29
2022-08-03T04:54:06.702Z,17.29
2022-08-03T04:55:08.584Z,17.29
2022-08-03T04:56:10.510Z,17.3
2022-08-03T04:57:22.394Z,17.29
2022-08-03T04:58:13.841Z,17.29
2022-08-03T04:59:15.540Z,17.29
2022-08-03T05:00:16.921Z,17.29
2022-08-03T05:01:19.038Z,17.29
2022-08-03T05:02:21.144Z,17.3
2022-08-03T05:03:24.296Z,17.31
2022-08-03T05:04:23.997Z,17.32
2022-08-03T05:05:25.893Z,17.32
2022-08-03T05:06:27.248Z,17.33
2022-08-03T05:07:36.627Z,17.35
2022-08-03T05:08:31.186Z,17.36
2022-08-03T05:09:45.793Z,17.37
2022-08-03T05:10:34.235Z,17.39
2022-08-03T05:11:36.351Z,17.42
2022-08-03T05:12:37.834Z,17.45
2022-08-03T05:13:39.312Z,17.49
2022-08-03T05:14:41.270Z,17.52
2022-08-03T05:15:43.383Z,17.56
2022-08-03T05:16:44.585Z,17.6
2022-08-03T05:17:46.638Z,17.64
2022-08-03T05:18:48.239Z,17.68
2022-08-03T05:19:49.804Z,17.71
2022-08-03T05:20:51.997Z,17.74
2022-08-03T05:21:53.631Z,17.76
2022-08-03T05:22:55.274Z,17.79
2022-08-03T05:23:56.831Z,17.82
2022-08-03T05:24:58.731Z,17.84
2022-08-03T05:26:01.042Z,17.87
2022-08-03T05:27:02.372Z,17.91
2022-08-03T05:28:04.149Z,17.93
2022-08-03T05:29:06.109Z,17.96
2022-08-03T05:30:31.136Z,17.99
2022-08-03T05:31:09.161Z,18.01
2022-08-03T05:32:10.347Z,18.03
2022-08-03T05:33:12.584Z,18.07
2022-08-03T05:34:14.272Z,18.1
2022-08-03T05:35:57.301Z,18.14
2022-08-03T05:36:17.618Z,18.17
2022-08-03T05:37:19.226Z,18.2
2022-08-03T05:38:28.071Z,18.23
2022-08-03T05:39:23.041Z,18.27
2022-08-03T05:40:24.641Z,18.31
2022-08-03T05:41:37.259Z,18.35
2022-08-03T05:42:28.298Z,18.39
2022-08-03T05:43:29.745Z,18.43
2022-08-03T05:44:31.833Z,18.48
2022-08-03T05:45:33.431Z,18.51
2022-08-03T05:46:35.137Z,18.57
2022-08-03T05:47:36.726Z,18.61
2022-08-03T05:48:38.420Z,18.66
2022-08-03T05:49:40.647Z,18.71
2022-08-03T05:50:42.997Z,18.76
2022-08-03T05:51:43.759Z,18.82
2022-08-03T05:52:45.769Z,18.87
2022-08-03T05:53:47.240Z,18.93
2022-08-03T05:54:56.484Z,18.99
2022-08-03T05:55:55.402Z,19.05
2022-08-03T05:56:52.356Z,19.1
2022-08-03T05:57:55.280Z,19.16
2022-08-03T05:58:55.970Z,19.22
2022-08-03T05:59:58.530Z,19.27
2022-08-03T06:00:59.388Z,19.32
2022-08-03T06:02:01.264Z,19.38
2022-08-03T06:03:03.139Z,19.44
2022-08-03T06:04:04.579Z,19.5
2022-08-03T06:05:06.384Z,19.55
2022-08-03T06:06:08.284Z,19.62
2022-08-03T06:07:09.802Z,19.69
2022-08-03T06:08:11.695Z,19.77
2022-08-03T06:09:13.388Z,19.84
2022-08-03T06:10:37.241Z,19.92
2022-08-03T06:11:16.953Z,20
2022-08-03T06:12:19.021Z,20.09
2022-08-03T06:13:20.443Z,20.2
2022-08-03T06:14:21.946Z,20.33
2022-08-03T06:15:23.766Z,20.41
2022-08-03T06:16:25.318Z,20.5
2022-08-03T06:17:27.375Z,20.63
2022-08-03T06:18:29.072Z,20.77
2022-08-03T06:19:31.105Z,20.94
2022-08-03T06:20:32.135Z,21.1
2022-08-03T06:21:34.239Z,21.27
2022-08-03T06:22:35.947Z,21.45
2022-08-03T06:23:53.141Z,21.6
2022-08-03T06:24:39.525Z,21.72
2022-08-03T06:25:41.531Z,21.78
2022-08-03T06:26:42.574Z,21.83
2022-08-03T06:27:44.891Z,21.9
2022-08-03T06:28:52.831Z,21.98
2022-08-03T06:29:47.972Z,22.05
2022-08-03T06:30:49.803Z,22.1
2022-08-03T06:31:51.700Z,22.19
2022-08-03T06:32:53.195Z,22.29
2022-08-03T06:34:35.150Z,22.36
2022-08-03T06:34:56.736Z,22.43
2022-08-03T06:35:58.395Z,22.5
2022-08-03T06:37:02.241Z,22.56
2022-08-03T06:38:02.675Z,22.62
2022-08-03T06:39:03.737Z,22.68
2022-08-03T06:40:05.294Z,22.73
2022-08-03T06:41:06.855Z,22.8
2022-08-03T06:42:08.753Z,22.86
2022-08-03T06:43:12.744Z,22.93
2022-08-03T06:44:12.440Z,23
2022-08-03T06:45:14.035Z,23.07
2022-08-03T06:46:15.831Z,23.13
2022-08-03T06:47:17.600Z,23.21
2022-08-03T06:48:19.111Z,23.27
2022-08-03T06:49:20.972Z,23.35
2022-08-03T06:50:26.015Z,23.41
2022-08-03T06:52:04.595Z,23.46
2022-08-03T06:52:38.109Z,23.53
2022-08-03T06:53:28.012Z,23.58
2022-08-03T06:54:32.944Z,23.63
2022-08-03T06:55:31.864Z,23.7
2022-08-03T06:56:33.195Z,23.76
2022-08-03T06:57:34.914Z,23.81
2022-08-03T06:58:36.585Z,23.87
2022-08-03T07:00:10.362Z,23.94
2022-08-03T07:00:40.243Z,23.99
2022-08-03T07:01:42.658Z,24.05
2022-08-03T07:02:44.108Z,24.13
2022-08-03T07:03:47.616Z,24.23
2022-08-03T07:04:47.323Z,24.3
2022-08-03T07:05:49.013Z,24.36
2022-08-03T07:06:51.418Z,24.44
2022-08-03T07:07:53.226Z,24.52
2022-08-03T07:08:59.009Z,24.63
2022-08-03T07:09:57.514Z,24.71
2022-08-03T07:10:57.000Z,24.82
2022-08-03T07:11:59.226Z,24.94
2022-08-03T07:13:01.142Z,25.04
2022-08-03T07:14:02.980Z,25.16
2022-08-03T07:15:04.502Z,25.25
2022-08-03T07:16:06.232Z,25.33
2022-08-03T07:17:11.647Z,25.4
2022-08-03T07:18:09.441Z,25.48
2022-08-03T07:19:11.593Z,25.56
2022-08-03T07:20:12.808Z,25.62
2022-08-03T07:21:14.662Z,25.69
2022-08-03T07:22:16.640Z,25.76
2022-08-03T07:23:19.133Z,25.85
2022-08-03T07:24:19.884Z,25.9
2022-08-03T07:25:21.815Z,25.97
2022-08-03T07:26:23.120Z,26.02
2022-08-03T07:27:25.197Z,26.04
2022-08-03T07:28:26.837Z,26.08
2022-08-03T07:29:28.578Z,26.12
2022-08-03T07:30:30.689Z,26.13
2022-08-03T07:31:34.272Z,26.14
2022-08-03T07:32:33.842Z,26.14
2022-08-03T07:33:35.515Z,26.13
2022-08-03T07:34:37.215Z,26.11
2022-08-03T07:35:38.919Z,26.05
2022-08-03T07:36:40.716Z,26.08
2022-08-03T07:37:42.211Z,26.1
2022-08-03T07:38:43.950Z,26.12
2022-08-03T07:39:45.779Z,26.14
2022-08-03T07:40:47.460Z,26.16
2022-08-03T07:41:49.178Z,26.19
2022-08-03T07:42:53.362Z,26.24
2022-08-03T07:43:52.792Z,26.28
2022-08-03T07:44:54.483Z,26.34
2022-08-03T07:45:56.016Z,26.38
2022-08-03T07:46:58.081Z,26.42
2022-08-03T07:47:59.770Z,26.46
2022-08-03T07:49:01.794Z,26.47
2022-08-03T07:50:03.188Z,26.49
2022-08-03T07:51:04.771Z,26.52
2022-08-03T07:52:06.795Z,26.56
2022-08-03T07:53:08.580Z,26.59
2022-08-03T07:54:10.275Z,26.64
2022-08-03T07:55:12.429Z,26.69
2022-08-03T07:56:13.551Z,26.74
2022-08-03T07:57:15.334Z,26.8
2022-08-03T07:58:21.952Z,26.86
2022-08-03T07:59:18.887Z,26.91
2022-08-03T08:00:21.772Z,26.93
2022-08-03T08:01:23.182Z,26.96
2022-08-03T08:02:24.855Z,26.98
2022-08-03T08:03:26.375Z,27
2022-08-03T08:04:28.402Z,27
2022-08-03T08:05:29.658Z,27.01
2022-08-03T08:06:31.284Z,27.04
2022-08-03T08:07:33.375Z,27.06
2022-08-03T08:08:34.654Z,27.1
2022-08-03T08:09:36.027Z,27.17
2022-08-03T08:10:37.726Z,27.2
2022-08-03T08:11:40.106Z,27.23
2022-08-03T08:12:41.201Z,27.27
2022-08-03T08:13:43.101Z,27.3
2022-08-03T08:14:44.728Z,27.32
2022-08-03T08:15:46.629Z,27.35
2022-08-03T08:16:48.290Z,27.39
2022-08-03T08:17:49.978Z,27.39
2022-08-03T08:18:52.260Z,27.44
2022-08-03T08:19:53.621Z,27.46
2022-08-03T08:20:55.079Z,27.49
2022-08-03T08:22:02.637Z,27.52
2022-08-03T08:22:58.667Z,27.53
2022-08-03T08:24:00.484Z,27.56
2022-08-03T08:25:02.291Z,27.59
2022-08-03T08:26:04.660Z,27.62
2022-08-03T08:27:05.587Z,27.63
2022-08-03T08:28:29.548Z,27.64
2022-08-03T08:29:09.058Z,27.66
2022-08-03T08:30:13.915Z,27.71
2022-08-03T08:31:13.159Z,27.75
2022-08-03T08:32:14.191Z,27.81
2022-08-03T08:33:22.518Z,27.88
2022-08-03T08:34:17.593Z,27.95
2022-08-03T08:35:19.540Z,28.02
2022-08-03T08:36:21.206Z,28.1
2022-08-03T08:37:22.959Z,28.18
2022-08-03T08:38:24.711Z,28.25
2022-08-03T08:39:26.217Z,28.31
2022-08-03T08:40:28.133Z,28.39
2022-08-03T08:41:32.281Z,28.48
2022-08-03T08:42:31.549Z,28.55
2022-08-03T08:43:33.393Z,28.61
2022-08-03T08:44:35.030Z,28.67
2022-08-03T08:45:36.796Z,28.73
2022-08-03T08:46:38.414Z,28.76
2022-08-03T08:47:50.905Z,28.79
2022-08-03T08:48:42.501Z,28.83
2022-08-03T08:49:53.574Z,28.81
2022-08-03T08:50:45.594Z,28.85
2022-08-03T08:51:59.612Z,28.86
2022-08-03T08:52:48.994Z,28.75
2022-08-03T08:53:50.769Z,28.78
2022-08-03T08:54:52.339Z,28.78
2022-08-03T08:55:59.419Z,28.72
2022-08-03T08:56:55.613Z,28.73
2022-08-03T08:57:57.383Z,28.71
2022-08-03T08:58:59.419Z,28.69
2022-08-03T09:00:01.062Z,28.71
2022-08-03T09:01:05.029Z,28.72
2022-08-03T09:02:04.916Z,28.74
2022-08-03T09:03:06.492Z,28.78
2022-08-03T09:04:08.557Z,28.79
2022-08-03T09:05:09.973Z,28.85
2022-08-03T09:06:11.859Z,28.89
2022-08-03T09:07:19.939Z,28.91
2022-08-03T09:08:15.038Z,28.94
2022-08-03T09:10:04.602Z,28.98
2022-08-03T09:10:18.434Z,29
2022-08-03T09:11:20.224Z,29.06
2022-08-03T09:12:41.118Z,29.08
2022-08-03T09:13:23.704Z,29.14
2022-08-03T09:14:34.391Z,29.19
2022-08-03T09:15:27.123Z,29.23
2022-08-03T09:16:28.829Z,29.27
2022-08-03T09:17:30.666Z,29.34
2022-08-03T09:18:33.088Z,29.4
2022-08-03T09:19:34.080Z,29.45
2022-08-03T09:20:35.847Z,29.52
2022-08-03T09:21:37.612Z,29.57
2022-08-03T09:22:39.218Z,29.62
2022-08-03T09:23:51.716Z,29.7
2022-08-03T09:24:43.492Z,29.73
2022-08-03T09:25:44.401Z,29.77
2022-08-03T09:26:46.198Z,29.82
2022-08-03T09:27:47.903Z,29.87
2022-08-03T09:28:59.875Z,29.89
2022-08-03T09:29:51.475Z,29.93
2022-08-03T09:30:53.356Z,29.97
2022-08-03T09:31:55.275Z,30.01
2022-08-03T09:32:56.656Z,30.06
2022-08-03T09:33:58.304Z,30.12
2022-08-03T09:35:00.030Z,30.15
2022-08-03T09:36:01.803Z,30.16
2022-08-03T09:37:03.669Z,30.2
2022-08-03T09:38:12.491Z,30.22
2022-08-03T09:39:06.982Z,30.25
2022-08-03T09:40:08.773Z,30.29
2022-08-03T09:41:10.424Z,30.33
2022-08-03T09:42:14.641Z,30.35
2022-08-03T09:43:13.998Z,30.37
2022-08-03T09:44:25.180Z,30.4
2022-08-03T09:45:17.300Z,30.45
2022-08-03T09:46:18.967Z,30.47
2022-08-03T09:47:22.082Z,30.51
2022-08-03T09:48:22.821Z,30.55
2022-08-03T09:49:24.566Z,30.61
2022-08-03T09:50:25.954Z,30.66
2022-08-03T09:51:32.920Z,30.69
2022-08-03T09:52:38.101Z,30.75
2022-08-03T09:53:31.241Z,30.75
2022-08-03T09:54:33.079Z,30.8
2022-08-03T09:56:33.818Z,30.84
2022-08-03T09:56:37.047Z,30.84
2022-08-03T09:57:38.181Z,30.84
2022-08-03T09:58:39.912Z,30.87
2022-08-03T09:59:41.712Z,30.89
2022-08-03T10:00:43.895Z,30.9
2022-08-03T10:01:45.796Z,30.89
2022-08-03T10:02:47.229Z,30.85
2022-08-03T10:04:04.032Z,30.9
2022-08-03T10:04:50.961Z,30.93
2022-08-03T10:05:57.433Z,30.93
2022-08-03T10:06:54.023Z,30.89
2022-08-03T10:07:55.517Z,30.93
2022-08-03T10:08:57.257Z,30.98
2022-08-03T10:10:29.014Z,31.03
2022-08-03T10:11:00.598Z,31.08
2022-08-03T10:12:02.932Z,31.14
2022-08-03T10:13:04.262Z,31.19
2022-08-03T10:14:06.004Z,31.26
2022-08-03T10:15:07.613Z,31.33
2022-08-03T10:16:22.545Z,31.29
2022-08-03T10:17:11.136Z,31.34
2022-08-03T10:18:13.027Z,31.4
2022-08-03T10:19:14.629Z,31.47
2022-08-03T10:20:16.418Z,31.51
2022-08-03T10:21:18.084Z,31.57
2022-08-03T10:22:19.740Z,31.63
2022-08-03T10:23:21.671Z,31.69
2022-08-03T10:24:23.326Z,31.73
2022-08-03T10:25:33.167Z,31.72
2022-08-03T10:26:26.816Z,31.76
2022-08-03T10:27:28.569Z,31.78
2022-08-03T10:28:30.402Z,31.8
2022-08-03T10:29:32.011Z,31.83
2022-08-03T10:30:34.201Z,31.83
2022-08-03T10:31:35.910Z,31.77
2022-08-03T10:32:37.524Z,31.8
2022-08-03T10:33:51.350Z,31.72
2022-08-03T10:34:44.454Z,31.75
2022-08-03T10:35:42.594Z,31.76
2022-08-03T10:36:44.208Z,31.78
2022-08-03T10:37:56.929Z,31.81
2022-08-03T10:38:47.631Z,31.82
2022-08-03T10:39:49.201Z,31.85
2022-08-03T10:40:53.604Z,31.86
2022-08-03T10:41:52.870Z,31.91
2022-08-03T10:42:54.577Z,31.94
2022-08-03T10:43:57.765Z,31.99
2022-08-03T10:44:58.011Z,32.05
2022-08-03T10:45:59.832Z,32.09
2022-08-03T10:47:01.713Z,32.12
2022-08-03T10:48:03.195Z,32.13
2022-08-03T10:49:05.091Z,32.16
2022-08-03T10:50:06.811Z,32.14
2022-08-03T10:51:08.492Z,32.12
2022-08-03T10:52:13.692Z,32.14
2022-08-03T10:53:11.960Z,32.13
2022-08-03T10:54:13.769Z,32.06
2022-08-03T10:55:15.393Z,32.09
2022-08-03T10:56:17.156Z,32.05
2022-08-03T10:57:18.886Z,32.03
2022-08-03T10:58:30.288Z,32
2022-08-03T10:59:27.712Z,31.99
2022-08-03T11:00:24.666Z,31.98
2022-08-03T11:01:26.069Z,31.94
2022-08-03T11:02:27.917Z,31.96
2022-08-03T11:03:29.420Z,31.98
2022-08-03T11:04:31.144Z,32.02
2022-08-03T11:05:32.993Z,32.05
2022-08-03T11:06:37.678Z,32.06
2022-08-03T11:07:36.070Z,32.09
2022-08-03T11:08:37.928Z,32.11
2022-08-03T11:09:39.643Z,32.13
2022-08-03T11:10:41.338Z,32.16
2022-08-03T11:11:43.024Z,32.18
2022-08-03T11:12:44.727Z,32.19
2022-08-03T11:13:46.218Z,32.18
2022-08-03T11:14:48.243Z,32.13
2022-08-03T11:15:49.982Z,32.15
2022-08-03T11:16:51.626Z,32.16
2022-08-03T11:17:55.796Z,32.17
2022-08-03T11:18:55.038Z,32.16
2022-08-03T11:19:58.515Z,32.2
2022-08-03T11:20:58.651Z,32.22
2022-08-03T11:22:00.328Z,32.25
2022-08-03T11:23:02.691Z,32.27
2022-08-03T11:24:06.331Z,32.31
2022-08-03T11:25:05.633Z,32.34
2022-08-03T11:26:07.269Z,32.37
2022-08-03T11:27:09.060Z,32.39
2022-08-03T11:28:10.808Z,32.45
2022-08-03T11:29:12.468Z,32.5
2022-08-03T11:30:14.542Z,32.56
2022-08-03T11:31:39.235Z,32.62
2022-08-03T11:32:19.673Z,32.67
2022-08-03T11:33:19.672Z,32.72
2022-08-03T11:34:21.062Z,32.74
2022-08-03T11:35:22.826Z,32.78
2022-08-03T11:36:32.259Z,32.81
2022-08-03T11:37:28.839Z,32.84
2022-08-03T11:38:28.131Z,32.88
2022-08-03T11:39:29.867Z,32.9
2022-08-03T11:40:31.574Z,32.9
2022-08-03T11:41:33.396Z,32.89
2022-08-03T11:42:35.035Z,32.89
2022-08-03T11:43:36.766Z,32.89
2022-08-03T11:44:38.298Z,32.9
2022-08-03T11:45:40.372Z,32.9
2022-08-03T11:46:41.998Z,32.88
2022-08-03T11:47:50.678Z,32.79
2022-08-03T11:48:45.262Z,32.77
2022-08-03T11:49:47.199Z,32.77
2022-08-03T11:50:48.666Z,32.76
2022-08-03T11:51:50.550Z,32.72
2022-08-03T11:52:52.379Z,32.73
2022-08-03T11:53:54.084Z,32.75
2022-08-03T11:54:57.120Z,32.75
2022-08-03T11:55:57.574Z,32.74
2022-08-03T11:56:59.267Z,32.75
2022-08-03T11:59:15.233Z,32.77
2022-08-03T11:59:18.489Z,32.76
2022-08-03T12:00:04.602Z,32.78
2022-08-03T12:01:06.539Z,32.78
2022-08-03T12:02:08.449Z,32.77
2022-08-03T12:03:10.209Z,32.77
2022-08-03T12:04:11.572Z,32.76
2022-08-03T12:05:13.910Z,32.74
2022-08-03T12:06:15.152Z,32.77
2022-08-03T12:07:25.012Z,32.78
2022-08-03T12:08:18.226Z,32.79
2022-08-03T12:09:21.379Z,32.81
2022-08-03T12:10:21.942Z,32.84
2022-08-03T12:11:23.554Z,32.87
2022-08-03T12:12:25.459Z,32.9
2022-08-03T12:14:33.069Z,32.93
2022-08-03T12:14:49.729Z,32.96
2022-08-03T12:15:30.589Z,33
2022-08-03T12:16:32.365Z,33.02
2022-08-03T12:17:33.964Z,33.05
2022-08-03T12:18:35.778Z,33.06
2022-08-03T12:19:37.516Z,33.09
2022-08-03T12:20:39.167Z,33.11
2022-08-03T12:21:40.720Z,33.15
2022-08-03T12:22:42.628Z,33.17
2022-08-03T12:23:44.404Z,33.2
2022-08-03T12:24:47.394Z,33.23
2022-08-03T12:25:47.785Z,33.26
2022-08-03T12:26:58.473Z,33.25
2022-08-03T12:27:51.103Z,33.29
2022-08-03T12:28:53.386Z,33.29
2022-08-03T12:29:58.371Z,33.3
2022-08-03T12:30:56.978Z,33.29
2022-08-03T12:31:58.725Z,33.28
2022-08-03T12:33:00.460Z,33.28
2022-08-03T12:34:01.871Z,33.28
2022-08-03T12:35:03.595Z,33.3
2022-08-03T12:36:05.318Z,33.32
2022-08-03T12:37:22.090Z,33.36
2022-08-03T12:38:08.700Z,33.4
2022-08-03T12:39:10.530Z,33.44
2022-08-03T12:40:15.165Z,33.43
2022-08-03T12:41:13.883Z,33.46
2022-08-03T12:42:15.605Z,33.47
2022-08-03T12:43:17.127Z,33.48
2022-08-03T12:44:19.069Z,33.41
2022-08-03T12:45:20.825Z,33.37
2022-08-03T12:46:22.579Z,33.37
2022-08-03T12:47:24.277Z,33.35
2022-08-03T12:48:27.859Z,33.33
2022-08-03T12:49:27.908Z,33.3
2022-08-03T12:50:29.535Z,33.27
2022-08-03T12:51:32.271Z,33.22
2022-08-03T12:52:33.561Z,33.2
2022-08-03T12:53:35.498Z,33.2
2022-08-03T12:54:36.500Z,33.2
2022-08-03T12:55:57.766Z,33.19
2022-08-03T12:56:39.970Z,33.18
2022-08-03T12:57:41.640Z,33.17
2022-08-03T12:58:43.725Z,33.17
2022-08-03T12:59:52.801Z,33.17
2022-08-03T13:00:47.255Z,33.17
2022-08-03T13:01:55.105Z,33.18
2022-08-03T13:03:05.443Z,33.21
2022-08-03T13:03:52.984Z,33.25
2022-08-03T13:04:54.391Z,33.3
2022-08-03T13:05:56.042Z,33.32
2022-08-03T13:06:57.976Z,33.35
2022-08-03T13:07:59.142Z,33.35
2022-08-03T13:09:00.768Z,33.37
2022-08-03T13:10:07.621Z,33.37
2022-08-03T13:11:04.988Z,33.38
2022-08-03T13:12:05.970Z,33.38
2022-08-03T13:13:07.654Z,33.38
2022-08-03T13:14:09.440Z,33.39
2022-08-03T13:15:10.998Z,33.41
2022-08-03T13:16:18.759Z,33.42
2022-08-03T13:17:14.607Z,33.45
2022-08-03T13:18:17.451Z,33.48
2022-08-03T13:19:18.053Z,33.5